Vienna, South Dakota
Current Conditions -  °F | °C
As of 6:53 AM on Thursday 27 Nov 2014 (Local Time) from KATY Reporting Station
Clear Clear  
Wind Chill: -13°   Ceiling: Unl
Heat Index: -13°   Visibility: 10mi
Dew Point: -16°   Wind: 0mph
Humidity: 86%   Direction: NA
Pressure: 30.42"   Gusts: NA
Location:  44.7°N, 97.5°W
Report Text: KATY 271253Z AUTO 00000KT 10SM CLR M25/M27 A3042 RMK AO2 SLP353 T12501267
Loading
Personal Weather Stations






























Interactive Weather Map New forecast layout! Learn more

10-Day Weather Forecast

Advertisements
Track Severe Weather on mobile